»·PEaware :: DAL1263 KSEA-KSFO

DAL1263 :: KSEA-KSFO

FLIGHT INFORMATION

Flight Status: Arrived
Operator:
Delta Air Lines
More flights by this operator :: More flights under this callsign
Pilot: Alli Chaytou (3122)
Aircraft: BOEING 757-200
(B752)
More flights by this aircraft type
Origin: KSEA Seattle-Tacoma Intl
United States
Destination: KSFO San Francisco Intl
United States
More flights between these airports :: More routes between these airports
Route: HAROB5 FEPOT Q3 FOWND MLBEC BDEGA2
File this flight plan on PilotEdge
Remarks: PBN / A1B3B4B5C4D4O4 DOF / 170813 REG / N627DL EET / KZOA0054 SEL / ABCK OPR / DAL RMK / TCAS SIMBRIEF
Altitude:
(Current/Filed)
34,000ft
Speed:
(Current/Filed)
457kts
Departed: 12-Aug-17 08:28 PM
Arrived: 12-Aug-17 10:06 PM
Distance/Time
Traveled:
590nm/1:38
Distance/Time
To Go:
Arrived

Flight Plot

Page will automatically refresh every two minutes.


Map Options




Map Legend


Flown Route
Filed Route
Departure Airport
Arrival Airport
Navaid (VOR, NDB)
Fix

Horizontal Profiles

Position Reports

Time Latitude Longitude Heading Altitude Ground
Speed
12-Aug-17 19:37 47.439331 -122.298317 88 445ft 0kts
12-Aug-17 19:38 47.439331 -122.298317 88 445ft 0kts
12-Aug-17 19:39 47.439331 -122.298317 88 445ft 0kts
12-Aug-17 19:40 47.439331 -122.298317 88 445ft 0kts
12-Aug-17 19:41 47.439331 -122.298317 88 445ft 0kts
12-Aug-17 19:42 47.439331 -122.298317 88 445ft 0kts
12-Aug-17 19:43 47.439331 -122.298317 88 445ft 0kts
12-Aug-17 19:44 47.439331 -122.298317 88 445ft 0kts
12-Aug-17 19:45 47.439331 -122.298317 88 445ft 0kts
12-Aug-17 19:45 47.439331 -122.298317 88 445ft 0kts
12-Aug-17 19:46 47.439331 -122.298317 88 445ft 0kts
12-Aug-17 19:47 47.439331 -122.298317 88 445ft 0kts
12-Aug-17 19:49 47.439331 -122.298317 88 445ft 0kts
12-Aug-17 19:49 47.439331 -122.298317 88 445ft 0kts
12-Aug-17 19:50 47.439331 -122.298317 88 445ft 0kts
12-Aug-17 19:51 47.439331 -122.298317 88 445ft 0kts
12-Aug-17 19:52 47.439331 -122.298317 88 445ft 0kts
12-Aug-17 19:53 47.439331 -122.298317 88 445ft 0kts
12-Aug-17 19:54 47.439331 -122.298317 88 445ft 0kts
12-Aug-17 19:55 47.439331 -122.298317 88 445ft 0kts
12-Aug-17 19:56 47.439331 -122.298317 88 445ft 0kts
12-Aug-17 19:57 47.439331 -122.298317 88 445ft 0kts
12-Aug-17 19:58 47.439331 -122.298317 88 445ft 0kts
12-Aug-17 19:59 47.439331 -122.298317 88 445ft 0kts
12-Aug-17 20:00 47.439331 -122.298317 88 445ft 0kts
12-Aug-17 20:01 47.439331 -122.298317 88 445ft 0kts
12-Aug-17 20:02 47.439331 -122.298317 88 444ft 0kts
12-Aug-17 20:03 47.439331 -122.298317 88 444ft 0kts
12-Aug-17 20:04 47.439331 -122.298317 88 444ft 0kts
12-Aug-17 20:05 47.439331 -122.298317 88 444ft 0kts
12-Aug-17 20:06 47.439331 -122.298317 88 444ft 0kts
12-Aug-17 20:07 47.439331 -122.298317 88 444ft 0kts
12-Aug-17 20:08 47.439331 -122.298317 88 444ft 0kts
12-Aug-17 20:09 47.439331 -122.298317 88 444ft 0kts
12-Aug-17 20:10 47.439331 -122.298317 88 444ft 0kts
12-Aug-17 20:11 47.439331 -122.298317 88 444ft 0kts
12-Aug-17 20:12 47.439306 -122.298625 74 444ft 2kts
12-Aug-17 20:13 47.438991 -122.299355 38 444ft 2kts
12-Aug-17 20:14 47.438461 -122.299696 16 444ft 2kts
12-Aug-17 20:15 47.438357 -122.299741 16 444ft 0kts
12-Aug-17 20:16 47.438357 -122.299741 16 444ft 0kts
12-Aug-17 20:17 47.438357 -122.299741 16 444ft 0kts
12-Aug-17 20:18 47.438357 -122.299741 16 444ft 0kts
12-Aug-17 20:19 47.438361 -122.299738 19 444ft 0kts
12-Aug-17 20:20 47.439282 -122.299643 336 444ft 8kts
12-Aug-17 20:21 47.440138 -122.302700 238 444ft 9kts
12-Aug-17 20:22 47.440582 -122.306344 356 444ft 11kts
12-Aug-17 20:23 47.444333 -122.306326 0 444ft 26kts
12-Aug-17 20:24 47.452382 -122.306236 0 444ft 33kts
12-Aug-17 20:25 47.461215 -122.306163 359 444ft 31kts
12-Aug-17 20:26 47.463141 -122.306134 0 444ft 0kts
12-Aug-17 20:27 47.463558 -122.306294 317 444ft 0kts
12-Aug-17 20:28 47.463558 -122.306294 317 444ft 0kts
12-Aug-17 20:29 47.463628 -122.306434 299 444ft 3kts
12-Aug-17 20:30 47.462840 -122.307744 182 444ft 3kts
12-Aug-17 20:31 47.434418 -122.308170 184 717ft 176kts
12-Aug-17 20:32 47.384889 -122.310912 186 2487ft 206kts
12-Aug-17 20:33 47.325477 -122.332858 236 4739ft 247kts
12-Aug-17 20:34 47.310610 -122.431388 260 7939ft 255kts
12-Aug-17 20:35 47.312103 -122.538032 269 10557ft 277kts
12-Aug-17 20:36 47.314754 -122.663267 269 11953ft 344kts
12-Aug-17 20:37 47.308204 -122.804008 246 14720ft 356kts
12-Aug-17 20:38 47.273396 -122.934311 249 15028ft 358kts
12-Aug-17 20:39 47.231383 -123.056896 222 17104ft 371kts
12-Aug-17 20:40 47.148905 -123.148637 218 19390ft 383kts
12-Aug-17 20:41 47.052417 -123.215869 188 21393ft 405kts
12-Aug-17 20:42 46.937933 -123.215012 181 23179ft 421kts
12-Aug-17 20:43 46.823809 -123.212315 182 24784ft 432kts
12-Aug-17 20:44 46.703252 -123.209272 182 26284ft 443kts
12-Aug-17 20:45 46.578618 -123.205574 182 27648ft 454kts
12-Aug-17 20:46 46.451880 -123.201443 182 28882ft 465kts
12-Aug-17 20:47 46.321274 -123.196239 182 30003ft 475kts
12-Aug-17 20:48 46.188490 -123.191179 182 31065ft 484kts
12-Aug-17 20:49 46.054410 -123.186171 183 32431ft 482kts
12-Aug-17 20:50 45.920955 -123.181758 183 33672ft 481kts
12-Aug-17 20:51 45.794169 -123.177670 184 34010ft 479kts
12-Aug-17 20:52 45.662183 -123.173963 184 33966ft 480kts
12-Aug-17 20:53 45.529192 -123.170270 183 33965ft 482kts
12-Aug-17 20:54 45.394244 -123.165418 182 33966ft 487kts
12-Aug-17 20:55 45.259749 -123.161776 182 33966ft 487kts
12-Aug-17 20:56 45.124851 -123.158411 182 33993ft 487kts
12-Aug-17 20:57 44.990552 -123.154441 182 33995ft 487kts
12-Aug-17 20:58 44.858712 -123.150353 182 33991ft 487kts
12-Aug-17 20:59 44.724485 -123.146186 182 33992ft 488kts
12-Aug-17 21:00 44.590025 -123.142019 182 33993ft 488kts
12-Aug-17 21:01 44.455396 -123.136198 181 34046ft 493kts
12-Aug-17 21:02 44.320293 -123.131018 182 34049ft 488kts
12-Aug-17 21:03 44.185870 -123.127648 182 34049ft 488kts
12-Aug-17 21:04 44.051235 -123.121669 182 34049ft 489kts
12-Aug-17 21:05 43.916203 -123.117122 182 34050ft 490kts
12-Aug-17 21:06 43.784111 -123.112644 182 34046ft 490kts
12-Aug-17 21:07 43.648555 -123.107917 182 34045ft 489kts
12-Aug-17 21:08 43.512608 -123.104087 182 34047ft 491kts
12-Aug-17 21:09 43.376855 -123.099567 182 34048ft 491kts
12-Aug-17 21:10 43.240863 -123.094139 182 34049ft 492kts
12-Aug-17 21:11 43.104742 -123.088322 182 34050ft 492kts
12-Aug-17 21:12 42.968393 -123.083370 182 34050ft 492kts
12-Aug-17 21:13 42.835277 -123.079606 182 34046ft 492kts
12-Aug-17 21:14 42.699096 -123.075235 182 34126ft 492kts
12-Aug-17 21:15 42.563155 -123.070674 182 34110ft 491kts
12-Aug-17 21:16 42.426697 -123.065348 182 33995ft 490kts
12-Aug-17 21:17 42.291045 -123.062372 182 33995ft 490kts
12-Aug-17 21:18 42.155079 -123.058393 182 33995ft 489kts
12-Aug-17 21:19 42.020168 -123.054118 182 33996ft 489kts
12-Aug-17 21:20 41.886704 -123.049354 182 33994ft 489kts
12-Aug-17 21:22 41.752219 -123.044561 182 34012ft 488kts
12-Aug-17 21:23 41.617146 -123.040115 181 34021ft 487kts
12-Aug-17 21:24 41.482193 -123.034996 182 34021ft 487kts
12-Aug-17 21:25 41.347414 -123.031134 182 33999ft 486kts
12-Aug-17 21:26 41.212782 -123.028211 182 33995ft 485kts
12-Aug-17 21:27 41.077966 -123.024542 182 33995ft 485kts
12-Aug-17 21:28 40.943908 -123.020555 182 33996ft 485kts
12-Aug-17 21:29 40.814183 -123.016722 183 33993ft 483kts
12-Aug-17 21:30 40.679721 -123.015453 182 33993ft 484kts
12-Aug-17 21:31 40.546077 -123.011807 182 33994ft 483kts
12-Aug-17 21:32 40.412138 -123.007867 182 33994ft 482kts
12-Aug-17 21:33 40.278098 -123.003911 182 33866ft 483kts
12-Aug-17 21:34 40.144899 -122.996509 180 33885ft 483kts
12-Aug-17 21:35 40.011134 -122.991029 181 33887ft 482kts
12-Aug-17 21:36 39.880359 -122.987733 181 33887ft 479kts
12-Aug-17 21:37 39.748110 -122.984149 180 33886ft 478kts
12-Aug-17 21:38 39.615396 -122.980960 180 33886ft 478kts
12-Aug-17 21:39 39.482388 -122.977478 180 32944ft 480kts
12-Aug-17 21:40 39.349454 -122.973707 180 32013ft 482kts
12-Aug-17 21:41 39.215790 -122.969419 180 31047ft 479kts
12-Aug-17 21:42 39.084409 -122.965116 180 30044ft 472kts
12-Aug-17 21:43 38.955194 -122.961734 180 29040ft 463kts
12-Aug-17 21:44 38.833156 -122.947024 168 28431ft 460kts
12-Aug-17 21:45 38.715016 -122.913011 169 26596ft 420kts
12-Aug-17 21:46 38.604585 -122.880621 169 24992ft 405kts
12-Aug-17 21:47 38.496272 -122.848350 168 24295ft 400kts
12-Aug-17 21:48 38.389777 -122.818032 169 22633ft 391kts
12-Aug-17 21:49 38.286291 -122.787934 169 20918ft 381kts
12-Aug-17 21:50 38.185207 -122.758459 169 19022ft 371kts
12-Aug-17 21:51 38.087477 -122.729425 168 17150ft 362kts
12-Aug-17 21:52 37.991588 -122.700763 168 15265ft 353kts
12-Aug-17 21:52 37.914044 -122.677725 162 13935ft 345kts
12-Aug-17 21:53 37.837770 -122.607665 141 13963ft 350kts
12-Aug-17 21:55 37.758835 -122.524376 141 13973ft 315kts
12-Aug-17 21:56 37.721496 -122.478895 121 13833ft 322kts
12-Aug-17 21:56 37.691560 -122.393964 113 12368ft 314kts
12-Aug-17 21:57 37.659582 -122.299193 113 10849ft 293kts
12-Aug-17 21:58 37.628445 -122.206659 113 9167ft 285kts
12-Aug-17 21:59 37.597945 -122.115444 113 7364ft 280kts
12-Aug-17 22:00 37.571988 -122.040283 126 5864ft 276kts
12-Aug-17 22:01 37.520595 -122.025069 215 4500ft 256kts
12-Aug-17 22:02 37.503828 -122.097895 293 3985ft 192kts
12-Aug-17 22:03 37.523561 -122.147713 295 3329ft 151kts
12-Aug-17 22:04 37.542159 -122.192922 296 2684ft 144kts
12-Aug-17 22:05 37.561075 -122.238012 297 2209ft 146kts
12-Aug-17 22:06 37.580022 -122.282989 297 1388ft 145kts
12-Aug-17 22:07 37.598764 -122.327538 297 600ft 143kts
12-Aug-17 22:08 37.616650 -122.369806 296 25ft 122kts
12-Aug-17 22:09 37.621337 -122.383152 207 24ft 0kts
12-Aug-17 22:10 37.621337 -122.383152 207 24ft 0kts
12-Aug-17 22:11 37.620165 -122.383043 129 24ft 7kts
12-Aug-17 22:12 37.620098 -122.382934 126 24ft 4kts
12-Aug-17 22:13 37.618296 -122.379738 152 24ft 12kts
12-Aug-17 22:14 37.617063 -122.379500 187 24ft 0kts
12-Aug-17 22:15 37.616672 -122.380386 297 24ft 3kts
12-Aug-17 22:16 37.616733 -122.380525 299 24ft 0kts
12-Aug-17 22:17 37.616733 -122.380525 299 24ft 0kts
12-Aug-17 22:18 37.616733 -122.380525 299 24ft 0kts
12-Aug-17 22:19 37.616733 -122.380525 299 25ft 0kts
12-Aug-17 22:20 37.616733 -122.380525 299 25ft 0kts
12-Aug-17 22:21 37.616733 -122.380525 299 25ft 0kts
12-Aug-17 22:22 37.616733 -122.380525 299 25ft 0kts
12-Aug-17 22:23 37.616733 -122.380525 299 25ft 0kts

Navigation Log

Ident Type
1. KSEA Airport
2. CAVOB Fix
3. RENBE Fix
4. RICHR Fix
5. EMRLD Fix
6. HAROB Fix
7. FEPOT Fix
8. FEPOT Navaid
9. FAMUK Navaid
10. FRFLY Navaid
11. FINER Navaid
12. FOWND Navaid
13. MLBEC Fix
14. JONNE Fix
15. BGGLO Fix
16. LOZIT Fix
17. BDEGA Fix
18. CORKK Fix
19. BRIXX Fix
20. KSFO Airport